Time;durP1;ratioP1;P1;durP2;ratioP2;P2;SDS_P1;SDS_P2;PMS_P1;PMS_P2;Temp;Humidity;BMP_temperature;BMP_pressure;BME280_temperature;BME280_humidity;BME280_pressure;Samples;Min_cycle;Max_cycle;Signal;HPM_P1;HPM_P2
2022/05/28 00:01:14;;;;;;;4.43;1.40;;;10.00;99.90;;;;;;5013966;28;20458;-47
2022/05/28 00:03:42;;;;;;;2.30;1.10;;;10.00;99.90;;;;;;5014222;28;20508;-48
2022/05/28 00:06:18;;;;;;;6.40;1.40;;;9.90;99.90;;;;;;5013806;28;20437;-43
2022/05/28 00:08:49;;;;;;;3.87;1.00;;;10.00;99.90;;;;;;5013756;28;20430;-46
2022/05/28 00:11:20;;;;;;;2.90;1.03;;;10.00;99.90;;;;;;5011945;28;20426;-48
2022/05/28 00:13:49;;;;;;;1.33;1.23;;;10.00;99.90;;;;;;5013732;28;20476;-47
2022/05/28 00:16:19;;;;;;;9.30;2.03;;;10.00;99.90;;;;;;5012714;28;20442;-46
2022/05/28 00:18:46;;;;;;;2.80;0.80;;;10.10;99.90;;;;;;5006895;28;20469;-47
2022/05/28 00:21:15;;;;;;;2.20;1.30;;;10.10;99.90;;;;;;5012271;28;20458;-48
2022/05/28 00:23:44;;;;;;;7.80;1.30;;;10.10;99.90;;;;;;5013117;28;20419;-46
2022/05/28 00:26:10;;;;;;;2.80;1.23;;;10.10;99.90;;;;;;5013855;28;20880;-55
2022/05/28 00:28:37;;;;;;;3.00;1.30;;;10.10;99.90;;;;;;5013349;28;20501;-50
2022/05/28 00:31:04;;;;;;;6.10;1.50;;;10.10;99.90;;;;;;5013488;28;20494;-61
2022/05/28 00:33:31;;;;;;;2.97;1.10;;;10.00;99.90;;;;;;5013505;28;20454;-52
2022/05/28 00:35:58;;;;;;;2.40;1.30;;;10.00;99.90;;;;;;5012732;28;20453;-53
2022/05/28 00:38:28;;;;;;;3.43;1.30;;;10.10;99.90;;;;;;5012838;28;20458;-40
2022/05/28 00:40:58;;;;;;;3.70;1.90;;;10.10;99.90;;;;;;5011795;28;20477;-46
2022/05/28 00:43:27;;;;;;;2.13;0.90;;;10.00;99.90;;;;;;5012437;28;20498;-48
2022/05/28 00:46:00;;;;;;;2.23;1.37;;;10.10;99.90;;;;;;5013432;28;20470;-47
2022/05/28 00:48:32;;;;;;;3.83;2.00;;;10.00;99.90;;;;;;5013206;28;20432;-43
2022/05/28 00:51:05;;;;;;;6.10;1.50;;;10.00;99.90;;;;;;5013027;28;20901;-43
2022/05/28 00:53:33;;;;;;;3.03;1.37;;;10.00;99.90;;;;;;5012525;28;20458;-47
2022/05/28 00:56:01;;;;;;;6.83;1.23;;;10.10;99.90;;;;;;5012255;28;20484;-49
2022/05/28 00:58:29;;;;;;;6.37;2.20;;;10.10;99.90;;;;;;5011997;28;20599;-53
2022/05/28 01:00:55;;;;;;;5.53;1.37;;;10.10;99.90;;;;;;5012850;28;20665;-46
2022/05/28 01:03:28;;;;;;;6.73;1.27;;;10.20;99.90;;;;;;5013266;28;20511;-50
2022/05/28 01:06:14;;;;;;;6.10;2.17;;;10.20;99.90;;;;;;5012340;28;20479;-44
2022/05/28 01:08:50;;;;;;;5.00;1.53;;;10.20;99.90;;;;;;5012763;28;20431;-46
2022/05/28 01:11:24;;;;;;;2.60;1.10;;;10.20;99.90;;;;;;5013158;28;20503;-52
2022/05/28 01:13:57;;;;;;;6.73;1.57;;;10.20;99.90;;;;;;5013457;28;20544;-47
2022/05/28 01:16:31;;;;;;;4.33;1.20;;;10.20;99.90;;;;;;5011890;28;20477;-45
2022/05/28 01:19:02;;;;;;;2.63;1.27;;;10.20;99.90;;;;;;5011308;28;20438;-44
2022/05/28 01:21:38;;;;;;;6.33;1.57;;;10.20;99.90;;;;;;5011597;28;20437;-39
2022/05/28 01:24:21;;;;;;;6.03;1.57;;;10.20;99.90;;;;;;5011667;28;20438;-45
2022/05/28 01:26:55;;;;;;;5.43;1.73;;;10.20;99.90;;;;;;5011257;28;20457;-45
2022/05/28 01:29:25;;;;;;;3.10;1.30;;;10.20;99.90;;;;;;5011841;28;20535;-46
2022/05/28 01:31:53;;;;;;;5.30;1.27;;;10.20;99.90;;;;;;5012883;28;20407;-39
2022/05/28 01:34:21;;;;;;;1.90;1.27;;;10.20;99.90;;;;;;5012416;28;20446;-37
2022/05/28 01:36:49;;;;;;;5.03;1.20;;;10.20;99.90;;;;;;5011657;28;20760;-43
2022/05/28 01:39:20;;;;;;;2.67;1.20;;;10.20;99.90;;;;;;5011188;28;20540;-46
2022/05/28 01:41:49;;;;;;;2.40;1.27;;;10.20;99.90;;;;;;5011048;28;20462;-40
2022/05/28 01:44:18;;;;;;;5.23;1.33;;;10.20;99.90;;;;;;5011096;28;20458;-43
2022/05/28 01:46:48;;;;;;;9.63;1.83;;;10.20;99.90;;;;;;5011145;28;20476;-42
2022/05/28 01:49:19;;;;;;;4.83;2.00;;;10.10;99.90;;;;;;5011406;28;20472;-43
2022/05/28 01:51:52;;;;;;;5.00;1.07;;;10.00;99.90;;;;;;5011878;28;20456;-56
2022/05/28 01:54:23;;;;;;;5.93;1.30;;;10.00;99.90;;;;;;5012517;28;20414;-52
2022/05/28 01:56:51;;;;;;;4.60;1.43;;;10.10;99.90;;;;;;5012754;28;20426;-43
2022/05/28 01:59:22;;;;;;;3.57;1.37;;;10.10;99.90;;;;;;5012266;28;20534;-46
2022/05/28 02:01:51;;;;;;;6.33;2.23;;;10.10;99.90;;;;;;5011466;28;20448;-51
2022/05/28 02:04:26;;;;;;;4.17;1.27;;;10.10;99.90;;;;;;5012266;28;20442;-46
2022/05/28 02:06:53;;;;;;;3.77;1.43;;;10.10;99.90;;;;;;5012374;28;20410;-41
2022/05/28 02:09:24;;;;;;;6.23;2.50;;;10.10;99.90;;;;;;5012011;28;20447;-44
2022/05/28 02:12:03;;;;;;;9.47;1.33;;;10.10;99.90;;;;;;5012018;28;20473;-48
2022/05/28 02:14:47;;;;;;;7.47;1.97;;;10.10;99.90;;;;;;5011503;28;20452;-41
2022/05/28 02:17:20;;;;;;;5.30;1.73;;;10.00;99.90;;;;;;5006410;28;20492;-44
2022/05/28 02:19:57;;;;;;;4.20;1.80;;;10.00;99.90;;;;;;5011481;28;20441;-43
2022/05/28 02:22:35;;;;;;;12.80;2.43;;;10.00;99.90;;;;;;5012183;28;20430;-41
2022/05/28 02:25:08;;;;;;;5.43;1.37;;;10.00;99.90;;;;;;5011645;28;20434;-45
2022/05/28 02:27:38;;;;;;;8.73;1.70;;;10.00;99.90;;;;;;5011385;28;20446;-42
2022/05/28 02:30:10;;;;;;;4.50;1.20;;;10.00;99.90;;;;;;5006988;28;20470;-46
2022/05/28 02:32:37;;;;;;;6.23;2.00;;;10.10;99.90;;;;;;5012188;28;20456;-55
2022/05/28 02:35:04;;;;;;;7.30;1.40;;;10.10;99.90;;;;;;5014267;28;20430;-41
2022/05/28 02:37:33;;;;;;;4.00;1.43;;;10.00;99.90;;;;;;5015717;28;20511;-49
2022/05/28 02:40:00;;;;;;;2.03;1.63;;;10.00;99.90;;;;;;5015034;28;20890;-46
2022/05/28 02:42:27;;;;;;;4.83;1.37;;;10.00;99.90;;;;;;5014542;28;20926;-42
2022/05/28 02:44:56;;;;;;;2.30;1.20;;;10.00;99.90;;;;;;5006315;28;20472;-51
2022/05/28 02:47:26;;;;;;;2.90;1.27;;;10.00;99.90;;;;;;5015223;28;20437;-40
2022/05/28 02:49:54;;;;;;;20.70;3.40;;;10.00;99.90;;;;;;5015087;28;20466;-42
2022/05/28 02:52:20;;;;;;;4.40;2.00;;;10.00;99.90;;;;;;5014848;28;20545;-44
2022/05/28 02:54:47;;;;;;;5.00;1.60;;;10.00;99.90;;;;;;5014523;28;20500;-49
2022/05/28 02:57:14;;;;;;;4.00;1.67;;;10.00;99.90;;;;;;5014792;28;20438;-47
2022/05/28 02:59:43;;;;;;;7.33;1.37;;;10.00;99.90;;;;;;5014739;28;20476;-41
2022/05/28 03:02:10;;;;;;;3.20;1.10;;;10.10;99.90;;;;;;5015190;28;20447;-51
2022/05/28 03:04:38;;;;;;;2.90;1.20;;;10.00;99.90;;;;;;5014157;28;20446;-44
2022/05/28 03:07:06;;;;;;;4.83;1.20;;;10.00;99.90;;;;;;5014009;28;20503;-45
2022/05/28 03:09:33;;;;;;;8.00;1.73;;;10.00;99.90;;;;;;5014853;28;20465;-42
2022/05/28 03:12:02;;;;;;;2.10;1.17;;;10.00;99.90;;;;;;5014905;28;20472;-48
2022/05/28 03:14:28;;;;;;;3.87;1.20;;;10.00;99.90;;;;;;5008964;28;20434;-58
2022/05/28 03:16:55;;;;;;;5.00;1.53;;;10.00;99.90;;;;;;5013418;28;20446;-45
2022/05/28 03:19:21;;;;;;;2.60;1.00;;;10.00;99.90;;;;;;5014257;28;20487;-47
2022/05/28 03:21:49;;;;;;;8.53;1.97;;;10.00;99.90;;;;;;5014203;28;20426;-44
2022/05/28 03:24:16;;;;;;;5.13;1.63;;;10.00;99.90;;;;;;5014126;28;20462;-46
2022/05/28 03:26:43;;;;;;;6.83;1.40;;;10.00;99.90;;;;;;5013857;28;20466;-46
2022/05/28 03:29:09;;;;;;;2.77;1.20;;;10.10;99.90;;;;;;5014309;28;20434;-48
2022/05/28 03:31:38;;;;;;;8.17;1.60;;;10.10;99.90;;;;;;5014049;28;20490;-44
2022/05/28 03:34:04;;;;;;;5.23;1.90;;;10.10;99.90;;;;;;5014297;28;20429;-41
2022/05/28 03:36:31;;;;;;;3.80;1.80;;;10.10;99.90;;;;;;5014337;28;20494;-46
2022/05/28 03:39:02;;;;;;;4.00;1.50;;;10.20;99.90;;;;;;5014902;28;20434;-40
2022/05/28 03:41:29;;;;;;;4.60;1.50;;;10.20;99.90;;;;;;5014327;28;20441;-46
2022/05/28 03:43:56;;;;;;;3.70;1.90;;;10.20;99.90;;;;;;5013981;28;20462;-48
2022/05/28 03:46:26;;;;;;;4.60;1.80;;;10.20;99.90;;;;;;5013782;28;20463;-43
2022/05/28 03:48:57;;;;;;;8.50;1.43;;;10.20;99.90;;;;;;5014025;28;20462;-49
2022/05/28 03:51:24;;;;;;;3.90;1.07;;;10.20;99.90;;;;;;5014721;28;20557;-50
2022/05/28 03:53:50;;;;;;;3.23;1.60;;;10.30;99.90;;;;;;5014173;28;20452;-49
2022/05/28 03:56:19;;;;;;;17.53;2.47;;;10.30;99.90;;;;;;5014199;28;20446;-43
2022/05/28 03:58:50;;;;;;;4.40;1.10;;;10.30;99.90;;;;;;5014432;28;20457;-53
2022/05/28 04:01:17;;;;;;;2.90;1.40;;;10.40;99.90;;;;;;5013781;28;20467;-46
2022/05/28 04:03:43;;;;;;;4.57;2.17;;;10.30;99.90;;;;;;5014194;28;20453;-43
2022/05/28 04:06:11;;;;;;;9.20;2.03;;;10.40;99.90;;;;;;5013655;28;20450;-43
2022/05/28 04:08:39;;;;;;;2.93;1.10;;;10.40;99.90;;;;;;5013832;28;20434;-39
2022/05/28 04:11:06;;;;;;;4.57;1.47;;;10.40;99.90;;;;;;5013633;28;20478;-46
2022/05/28 04:13:34;;;;;;;2.23;1.50;;;10.50;99.90;;;;;;5012757;28;20461;-43
2022/05/28 04:16:01;;;;;;;6.77;1.30;;;10.50;99.90;;;;;;5013526;28;20959;-50
2022/05/28 04:18:31;;;;;;;4.30;1.47;;;10.50;99.90;;;;;;5014089;28;20447;-40
2022/05/28 04:20:58;;;;;;;3.03;1.70;;;10.50;99.90;;;;;;5013484;28;20446;-48
2022/05/28 04:23:24;;;;;;;3.20;1.30;;;10.60;99.90;;;;;;5013176;28;20449;-45
2022/05/28 04:25:51;;;;;;;2.07;1.40;;;10.60;99.90;;;;;;5013075;28;20765;-46
2022/05/28 04:28:18;;;;;;;6.63;1.80;;;10.70;99.90;;;;;;5013170;28;20446;-49
2022/05/28 04:30:46;;;;;;;2.80;1.53;;;10.80;99.90;;;;;;5013309;28;20474;-46
2022/05/28 04:33:14;;;;;;;4.67;1.50;;;10.70;99.90;;;;;;5013465;28;20438;-53
2022/05/28 04:35:41;;;;;;;5.03;1.53;;;10.60;99.90;;;;;;5013627;28;20476;-45
2022/05/28 04:38:08;;;;;;;2.97;1.00;;;10.60;99.90;;;;;;5009194;28;20474;-44
2022/05/28 04:40:35;;;;;;;4.47;1.37;;;10.50;99.90;;;;;;5011888;28;20450;-42
2022/05/28 04:43:01;;;;;;;3.77;1.53;;;10.50;99.90;;;;;;5012713;28;20527;-48
2022/05/28 04:45:30;;;;;;;4.00;2.00;;;10.30;99.90;;;;;;5012605;28;20434;-48
2022/05/28 04:47:58;;;;;;;6.37;1.50;;;10.20;99.90;;;;;;5012634;28;20470;-55
2022/05/28 04:50:25;;;;;;;2.90;1.13;;;10.10;99.90;;;;;;5012315;28;20445;-53
2022/05/28 04:52:51;;;;;;;3.23;1.10;;;10.00;99.90;;;;;;5007224;28;20446;-45
2022/05/28 04:55:18;;;;;;;2.63;2.10;;;10.00;99.90;;;;;;5012440;28;20454;-47
2022/05/28 04:57:45;;;;;;;1.50;1.07;;;10.00;99.90;;;;;;5011730;28;20479;-43
2022/05/28 05:00:17;;;;;;;4.23;1.70;;;10.00;99.90;;;;;;5012076;28;20470;-47
2022/05/28 05:02:44;;;;;;;1.93;1.10;;;10.10;99.90;;;;;;5013073;28;20432;-37
2022/05/28 05:05:12;;;;;;;2.30;1.10;;;10.10;99.90;;;;;;5013206;28;20470;-45
2022/05/28 05:07:39;;;;;;;5.57;2.50;;;10.00;99.90;;;;;;5012269;28;20434;-45
2022/05/28 05:10:07;;;;;;;4.23;1.17;;;9.90;99.90;;;;;;5011818;28;20469;-49
2022/05/28 05:12:33;;;;;;;3.23;1.23;;;9.90;99.90;;;;;;5012242;28;20423;-43
2022/05/28 05:15:00;;;;;;;1.87;0.97;;;9.90;99.90;;;;;;5011920;28;20450;-44
2022/05/28 05:17:27;;;;;;;2.00;1.10;;;9.90;99.90;;;;;;5012423;28;20503;-44
2022/05/28 05:19:54;;;;;;;5.33;1.20;;;10.00;99.90;;;;;;5012195;28;20456;-44
2022/05/28 05:22:22;;;;;;;4.07;1.40;;;9.90;99.90;;;;;;5012275;28;20466;-42
2022/05/28 05:24:49;;;;;;;6.40;1.00;;;9.90;99.90;;;;;;5009515;28;20438;-49
2022/05/28 05:27:16;;;;;;;2.70;1.50;;;9.90;99.90;;;;;;5011437;28;20462;-39
2022/05/28 05:29:42;;;;;;;1.73;1.00;;;10.00;99.90;;;;;;5011883;28;20447;-44
2022/05/28 05:32:09;;;;;;;2.50;1.27;;;10.10;99.90;;;;;;5012360;28;20490;-45
2022/05/28 05:34:37;;;;;;;2.23;1.30;;;10.20;99.90;;;;;;5029546;28;20454;-47
2022/05/28 05:37:04;;;;;;;3.10;1.33;;;10.30;99.90;;;;;;5010906;28;20442;-46
2022/05/28 05:39:32;;;;;;;1.40;0.87;;;10.30;99.90;;;;;;5012018;28;20454;-40
2022/05/28 05:41:58;;;;;;;5.90;1.37;;;10.30;99.90;;;;;;5011447;28;20821;-50
2022/05/28 05:44:27;;;;;;;3.30;2.03;;;10.30;99.90;;;;;;5012573;28;20478;-46
2022/05/28 05:46:55;;;;;;;7.30;1.60;;;10.30;99.90;;;;;;5011354;28;20441;-46
2022/05/28 05:49:21;;;;;;;2.47;1.03;;;10.40;99.90;;;;;;5011603;28;20469;-43
2022/05/28 05:51:51;;;;;;;1.70;0.80;;;10.40;99.90;;;;;;5003594;28;20486;-43
2022/05/28 05:54:24;;;;;;;4.23;1.57;;;10.40;99.90;;;;;;5001913;28;20451;-46
2022/05/28 05:56:52;;;;;;;3.27;1.30;;;10.40;99.90;;;;;;5011141;28;20470;-46
2022/05/28 05:59:22;;;;;;;3.63;1.30;;;10.50;99.90;;;;;;5011413;28;20446;-52
2022/05/28 06:01:49;;;;;;;2.97;1.10;;;10.50;99.90;;;;;;5011214;28;20466;-50
2022/05/28 06:04:16;;;;;;;4.13;1.00;;;10.50;99.90;;;;;;5011812;28;20490;-45
2022/05/28 06:06:43;;;;;;;3.83;1.00;;;10.60;99.90;;;;;;5001503;28;20497;-50
2022/05/28 06:09:10;;;;;;;2.70;1.03;;;10.70;99.90;;;;;;4999657;28;20476;-54
2022/05/28 06:11:37;;;;;;;3.73;1.20;;;10.80;99.90;;;;;;5012891;28;20490;-44
2022/05/28 06:14:05;;;;;;;4.30;0.97;;;10.80;99.90;;;;;;5015092;28;20438;-48
2022/05/28 06:16:32;;;;;;;1.77;1.10;;;10.80;99.90;;;;;;5012945;28;20442;-52
2022/05/28 06:18:59;;;;;;;7.10;1.37;;;10.90;99.90;;;;;;5015204;28;20475;-47
2022/05/28 06:21:26;;;;;;;3.10;1.40;;;10.90;99.90;;;;;;5002691;28;20483;-44
2022/05/28 06:23:53;;;;;;;3.23;1.30;;;10.90;99.90;;;;;;4995064;28;20462;-48
2022/05/28 06:26:20;;;;;;;2.60;1.07;;;10.80;99.90;;;;;;4994373;28;20467;-47
2022/05/28 06:28:49;;;;;;;3.73;1.13;;;10.90;99.90;;;;;;5000097;28;20481;-48
2022/05/28 06:31:17;;;;;;;3.00;1.13;;;10.90;99.90;;;;;;5009208;28;20474;-45
2022/05/28 06:33:43;;;;;;;7.70;1.43;;;10.90;99.90;;;;;;4996109;28;20454;-44
2022/05/28 06:36:14;;;;;;;6.40;1.47;;;10.90;99.90;;;;;;4996061;28;20477;-48
2022/05/28 06:38:40;;;;;;;2.57;1.67;;;10.90;99.90;;;;;;5007827;28;20461;-41
2022/05/28 06:41:08;;;;;;;5.93;1.30;;;11.00;99.90;;;;;;5015343;28;20474;-49
2022/05/28 06:43:36;;;;;;;6.97;1.50;;;11.10;99.90;;;;;;5014635;28;20446;-43
2022/05/28 06:46:04;;;;;;;4.40;1.20;;;11.30;99.90;;;;;;5015347;28;20470;-42
2022/05/28 06:48:35;;;;;;;2.67;1.00;;;11.40;99.90;;;;;;5011225;28;20446;-47
2022/05/28 06:51:02;;;;;;;1.70;1.10;;;11.50;99.90;;;;;;5014768;28;20481;-41
2022/05/28 06:53:29;;;;;;;2.67;1.07;;;11.60;99.90;;;;;;5014964;28;20440;-43
2022/05/28 06:55:56;;;;;;;2.87;1.33;;;11.70;99.90;;;;;;5016906;28;20466;-43
2022/05/28 06:58:23;;;;;;;1.50;1.13;;;11.70;99.90;;;;;;5014652;28;20480;-47
2022/05/28 07:00:50;;;;;;;1.20;0.90;;;11.70;99.90;;;;;;5012123;28;20450;-47
2022/05/28 07:03:18;;;;;;;5.13;1.50;;;11.90;99.90;;;;;;5013732;28;20478;-46
2022/05/28 07:05:46;;;;;;;13.33;1.30;;;11.90;99.90;;;;;;5014292;28;20465;-47
2022/05/28 07:08:14;;;;;;;2.70;1.23;;;12.00;99.90;;;;;;5012909;28;20480;-42
2022/05/28 07:10:43;;;;;;;2.70;1.10;;;12.00;99.90;;;;;;5014124;28;20561;-45
2022/05/28 07:13:11;;;;;;;4.90;1.40;;;12.20;99.90;;;;;;5012494;28;20457;-42
2022/05/28 07:15:37;;;;;;;2.03;1.23;;;12.40;99.90;;;;;;5012957;28;20477;-44
2022/05/28 07:18:05;;;;;;;2.80;1.13;;;12.60;99.90;;;;;;5014634;28;20422;-42
2022/05/28 07:20:32;;;;;;;6.07;1.73;;;13.10;99.90;;;;;;5037918;28;20516;-45
2022/05/28 07:23:06;;;;;;;2.27;1.30;;;13.40;99.90;;;;;;5033266;28;20445;-42
2022/05/28 07:25:33;;;;;;;3.07;1.13;;;13.50;99.90;;;;;;5022088;28;20462;-51
2022/05/28 07:28:24;;;;;;;3.57;1.40;;;13.40;99.90;;;;;;5014050;28;20430;-46
2022/05/28 07:30:49;;;;;;;4.63;1.47;;;13.10;99.90;;;;;;5014401;28;20523;-47
2022/05/28 07:33:15;;;;;;;3.53;1.23;;;12.70;99.90;;;;;;5012027;28;20484;-52
2022/05/28 07:35:42;;;;;;;2.53;1.23;;;12.60;99.90;;;;;;5013995;28;20981;-50
2022/05/28 07:38:10;;;;;;;4.47;1.30;;;13.20;99.90;;;;;;5024267;28;20438;-45
2022/05/28 07:40:37;;;;;;;6.73;1.70;;;13.40;99.90;;;;;;5014664;28;20466;-44
2022/05/28 07:43:08;;;;;;;2.73;1.20;;;13.60;99.90;;;;;;5014139;28;20438;-44
2022/05/28 07:45:38;;;;;;;2.40;1.03;;;13.70;99.90;;;;;;5014371;28;20518;-43
2022/05/28 07:48:05;;;;;;;2.27;1.13;;;13.80;99.90;;;;;;5012524;28;20446;-49
2022/05/28 07:50:32;;;;;;;6.10;1.53;;;13.60;99.90;;;;;;5014052;28;20480;-42
2022/05/28 07:52:59;;;;;;;3.07;1.67;;;13.30;99.90;;;;;;5013284;28;20496;-47
2022/05/28 07:55:30;;;;;;;3.63;1.20;;;13.10;99.90;;;;;;5012131;28;20482;-44
2022/05/28 07:57:58;;;;;;;1.90;0.97;;;13.10;99.90;;;;;;5010170;28;20440;-43
2022/05/28 08:00:24;;;;;;;10.80;1.30;;;13.10;99.90;;;;;;5012760;28;20496;-45
2022/05/28 08:02:51;;;;;;;1.53;1.00;;;13.30;99.90;;;;;;5013415;28;20521;-45
2022/05/28 08:05:18;;;;;;;6.03;1.40;;;13.50;99.90;;;;;;5012471;28;20495;-46
2022/05/28 08:07:44;;;;;;;3.43;1.37;;;13.70;99.90;;;;;;5014613;28;20457;-45
2022/05/28 08:10:11;;;;;;;2.87;1.20;;;13.60;99.90;;;;;;5014494;28;20464;-44
2022/05/28 08:12:39;;;;;;;3.50;1.40;;;13.70;99.90;;;;;;5013792;28;20482;-47
2022/05/28 08:15:07;;;;;;;7.23;1.90;;;13.70;99.90;;;;;;5033560;28;20453;-45
2022/05/28 08:17:34;;;;;;;11.90;2.83;;;13.80;99.90;;;;;;5023056;28;20519;-41
2022/05/28 08:20:01;;;;;;;6.40;1.20;;;13.80;99.90;;;;;;5013503;28;20548;-50
2022/05/28 08:25:11;;;;;;;3.20;1.13;;;13.80;99.90;;;;;;5011757;28;20400;-44
2022/05/28 08:27:41;;;;;;;5.33;2.17;;;14.20;99.90;;;;;;5023823;28;20460;-51
2022/05/28 08:30:09;;;;;;;3.33;1.30;;;14.20;99.90;;;;;;5032072;28;20434;-50
2022/05/28 08:32:36;;;;;;;1.73;1.33;;;14.40;99.90;;;;;;5030880;28;20674;-48
2022/05/28 08:35:04;;;;;;;3.20;1.17;;;14.40;99.90;;;;;;5018046;28;20460;-49
2022/05/28 08:37:30;;;;;;;3.23;1.60;;;14.20;99.90;;;;;;5012818;28;20522;-45
2022/05/28 08:39:57;;;;;;;1.97;1.30;;;14.10;99.90;;;;;;5012366;28;20431;-47
2022/05/28 08:42:27;;;;;;;2.40;1.27;;;13.80;99.90;;;;;;5010492;28;20485;-48
2022/05/28 08:44:56;;;;;;;2.63;1.00;;;13.60;99.90;;;;;;5013333;28;20462;-51
2022/05/28 08:47:28;;;;;;;4.10;1.50;;;13.50;99.90;;;;;;5013428;28;20481;-40
2022/05/28 08:49:56;;;;;;;5.40;1.60;;;13.40;99.90;;;;;;5012680;28;20815;-49
2022/05/28 08:52:29;;;;;;;10.13;3.83;;;14.10;99.90;;;;;;5012025;28;20482;-51
2022/05/28 08:55:01;;;;;;;7.30;1.40;;;15.00;99.90;;;;;;5011867;28;20423;-51
2022/05/28 08:57:40;;;;;;;3.73;1.60;;;15.00;99.90;;;;;;5013458;28;20474;-49
2022/05/28 09:00:12;;;;;;;9.50;1.70;;;14.70;99.90;;;;;;5010458;28;20435;-51
2022/05/28 09:02:43;;;;;;;2.30;1.30;;;14.10;99.90;;;;;;5010129;28;20481;-47
2022/05/28 09:05:21;;;;;;;6.93;1.57;;;13.70;99.90;;;;;;5011809;28;20511;-52
2022/05/28 09:07:48;;;;;;;8.57;2.30;;;13.80;99.90;;;;;;5006128;28;20787;-50
2022/05/28 09:10:15;;;;;;;1.73;1.10;;;14.70;99.90;;;;;;5012473;28;20430;-51
2022/05/28 09:12:45;;;;;;;2.27;1.00;;;15.80;99.90;;;;;;5003808;28;20501;-50
2022/05/28 09:15:14;;;;;;;4.43;1.50;;;16.90;99.90;;;;;;5011049;28;20442;-45
2022/05/28 09:17:45;;;;;;;3.90;1.10;;;17.20;99.90;;;;;;5007494;28;20446;-52
2022/05/28 09:20:17;;;;;;;8.63;1.73;;;16.60;99.90;;;;;;5011153;28;20435;-47
2022/05/28 09:22:45;;;;;;;3.17;1.93;;;16.00;99.90;;;;;;5017253;28;20425;-40
2022/05/28 09:25:14;;;;;;;4.43;1.50;;;15.70;99.90;;;;;;5014435;28;20446;-46
2022/05/28 09:27:50;;;;;;;10.73;1.77;;;15.40;99.90;;;;;;5032315;28;21010;-47
2022/05/28 09:30:32;;;;;;;4.60;1.80;;;15.30;99.90;;;;;;5030188;28;20494;-47
2022/05/28 09:33:35;;;;;;;5.03;1.40;;;15.30;99.90;;;;;;5015788;28;20532;-44
2022/05/28 09:36:07;;;;;;;7.93;1.80;;;15.20;99.90;;;;;;5044938;28;20470;-48
2022/05/28 09:38:45;;;;;;;2.27;1.27;;;15.00;99.90;;;;;;5030247;28;20429;-49
2022/05/28 09:41:34;;;;;;;3.13;1.40;;;15.30;99.90;;;;;;4997818;28;20452;-40
2022/05/28 09:44:15;;;;;;;2.60;1.30;;;15.10;99.90;;;;;;5036168;28;20437;-54
2022/05/28 09:46:45;;;;;;;3.63;1.37;;;14.90;99.90;;;;;;5032255;28;20463;-39
2022/05/28 09:49:14;;;;;;;5.97;1.67;;;15.30;99.90;;;;;;5019947;28;20478;-47
2022/05/28 09:51:52;;;;;;;3.30;1.83;;;16.10;99.90;;;;;;5031327;28;20491;-49
2022/05/28 09:54:23;;;;;;;5.07;1.87;;;16.90;99.90;;;;;;5035970;28;20433;-47
2022/05/28 09:56:56;;;;;;;4.33;2.00;;;17.40;98.80;;;;;;5018478;28;20434;-50
2022/05/28 09:59:35;;;;;;;14.17;2.97;;;17.30;97.30;;;;;;5024650;28;20486;-49
2022/05/28 10:02:12;;;;;;;4.27;1.50;;;16.80;97.70;;;;;;5014930;28;20492;-48
2022/05/28 10:04:49;;;;;;;2.87;1.30;;;16.40;99.80;;;;;;5010968;28;20446;-49
2022/05/28 10:07:16;;;;;;;3.10;1.30;;;15.90;99.90;;;;;;5016623;28;20448;-46
2022/05/28 10:09:53;;;;;;;3.83;1.13;;;15.50;99.90;;;;;;5022843;28;20457;-49
2022/05/28 10:12:23;;;;;;;8.60;1.33;;;15.50;99.90;;;;;;5015535;28;20473;-46
2022/05/28 10:14:59;;;;;;;2.80;2.43;;;16.00;99.90;;;;;;5017591;28;20496;-46
2022/05/28 10:17:30;;;;;;;3.03;1.13;;;16.50;99.90;;;;;;5033907;28;20433;-46
2022/05/28 10:19:59;;;;;;;1.73;1.20;;;17.20;99.90;;;;;;5032303;28;20537;-50
2022/05/28 10:22:28;;;;;;;1.83;1.37;;;17.70;99.90;;;;;;5032280;28;20459;-47
2022/05/28 10:24:59;;;;;;;6.40;1.30;;;17.80;99.90;;;;;;5030873;28;20453;-50
2022/05/28 10:27:33;;;;;;;4.13;1.53;;;17.80;99.90;;;;;;5007879;28;20472;-43
2022/05/28 10:30:03;;;;;;;4.20;1.73;;;17.40;99.90;;;;;;5008682;28;20505;-44
2022/05/28 10:32:35;;;;;;;3.10;1.10;;;17.40;99.90;;;;;;5026626;28;20513;-41
2022/05/28 10:35:06;;;;;;;1.87;1.27;;;17.70;99.90;;;;;;5025744;28;20445;-50
2022/05/28 10:37:33;;;;;;;5.60;1.67;;;18.00;99.90;;;;;;5015808;28;20451;-44
2022/05/28 10:40:09;;;;;;;3.87;2.50;;;18.10;99.40;;;;;;5030489;28;20449;-49
2022/05/28 10:42:37;;;;;;;2.50;1.30;;;18.00;98.80;;;;;;5028253;28;20450;-41
2022/05/28 10:45:06;;;;;;;4.60;1.50;;;18.00;98.80;;;;;;5022958;28;20524;-40
2022/05/28 10:48:04;;;;;;;4.20;1.83;;;18.20;96.90;;;;;;5032542;28;20517;-48
2022/05/28 10:50:41;;;;;;;1.10;0.90;;;18.30;96.70;;;;;;5032774;28;20467;-45
2022/05/28 10:53:17;;;;;;;6.00;1.53;;;18.20;98.50;;;;;;5014481;28;20499;-43
2022/05/28 10:55:55;;;;;;;2.60;1.57;;;17.70;97.50;;;;;;5014200;28;20442;-43
2022/05/28 10:58:31;;;;;;;2.73;1.13;;;17.50;97.90;;;;;;5015272;28;20458;-46
2022/05/28 11:01:02;;;;;;;9.13;2.70;;;17.20;98.10;;;;;;5015484;28;20434;-38
2022/05/28 11:04:06;;;;;;;6.13;1.60;;;16.90;99.50;;;;;;5006775;28;20434;-54
2022/05/28 11:07:01;;;;;;;6.20;2.13;;;16.40;99.90;;;;;;5014660;28;20525;-46
2022/05/28 11:09:41;;;;;;;2.97;1.60;;;15.90;99.90;;;;;;5014751;28;20437;-41
2022/05/28 11:12:22;;;;;;;6.03;1.60;;;16.00;99.90;;;;;;5007226;28;20485;-48
2022/05/28 11:15:09;;;;;;;2.00;1.27;;;16.60;99.90;;;;;;5016058;28;20398;-42
2022/05/28 11:17:57;;;;;;;5.17;1.50;;;16.90;99.00;;;;;;5006842;28;20480;-42
2022/05/28 11:20:34;;;;;;;8.47;2.40;;;17.50;97.60;;;;;;5015399;28;20477;-52
2022/05/28 11:23:32;;;;;;;3.10;1.40;;;17.80;93.50;;;;;;5015793;28;20466;-45
2022/05/28 11:26:08;;;;;;;7.40;1.50;;;17.80;93.40;;;;;;5015614;28;20458;-46
2022/05/28 11:29:01;;;;;;;4.87;1.20;;;17.50;93.00;;;;;;5015191;28;20488;-46
2022/05/28 11:31:33;;;;;;;2.20;1.40;;;17.20;93.30;;;;;;5007567;28;20511;-40
2022/05/28 11:34:07;;;;;;;7.40;2.13;;;17.10;94.80;;;;;;5015059;28;20519;-48
2022/05/28 11:36:38;;;;;;;7.90;1.17;;;17.40;94.20;;;;;;5014571;28;20438;-51
2022/05/28 11:39:15;;;;;;;7.70;1.50;;;17.40;94.10;;;;;;5014727;28;20473;-44
2022/05/28 11:41:48;;;;;;;2.50;1.50;;;17.30;95.60;;;;;;5014996;28;20438;-40
2022/05/28 11:44:20;;;;;;;2.60;1.70;;;17.60;95.50;;;;;;5014446;28;20463;-42
2022/05/28 11:46:51;;;;;;;2.50;1.50;;;17.60;93.90;;;;;;5014307;28;20427;-51
2022/05/28 11:52:19;;;;;;;1.95;1.25;;;16.70;97.10;;;;;;5013958;28;20426;-48
2022/05/28 11:54:52;;;;;;;3.07;1.50;;;16.20;99.90;;;;;;5013921;28;20539;-47
2022/05/28 11:57:26;;;;;;;2.97;1.10;;;16.10;99.90;;;;;;5014585;28;20460;-48
2022/05/28 11:59:54;;;;;;;6.00;1.67;;;16.20;99.90;;;;;;5014832;28;20423;-42
2022/05/28 12:02:25;;;;;;;13.00;1.50;;;16.20;99.90;;;;;;5014277;28;20446;-45
2022/05/28 12:04:53;;;;;;;1.70;1.20;;;16.20;99.90;;;;;;5014292;28;20430;-49
2022/05/28 12:07:34;;;;;;;10.03;1.50;;;16.20;99.90;;;;;;5013152;28;20466;-47
2022/05/28 12:10:04;;;;;;;4.10;1.10;;;16.10;99.90;;;;;;5014777;28;20440;-43
2022/05/28 12:12:35;;;;;;;2.33;1.10;;;16.10;99.90;;;;;;5014425;28;20496;-42
2022/05/28 12:15:08;;;;;;;2.60;1.70;;;16.20;99.90;;;;;;5015325;28;20422;-46
2022/05/28 12:17:35;;;;;;;1.97;1.30;;;16.20;99.90;;;;;;5013974;28;20474;-50
2022/05/28 12:20:07;;;;;;;5.37;1.10;;;16.30;99.90;;;;;;5013827;28;20450;-42
2022/05/28 12:22:36;;;;;;;4.37;1.70;;;16.20;99.90;;;;;;5014130;28;20443;-42
2022/05/28 12:25:22;;;;;;;2.67;1.73;;;16.30;99.90;;;;;;5013436;28;20430;-44
2022/05/28 12:28:08;;;;;;;1.93;1.33;;;16.50;99.90;;;;;;5015921;28;20469;-45
2022/05/28 12:30:48;;;;;;;2.57;1.10;;;16.70;99.90;;;;;;5035589;28;20458;-49
2022/05/28 12:33:26;;;;;;;3.33;1.23;;;16.70;99.90;;;;;;4998983;28;20526;-43
2022/05/28 12:36:02;;;;;;;2.53;1.10;;;16.70;99.90;;;;;;5014145;28;20470;-53
2022/05/28 12:38:53;;;;;;;3.40;2.10;;;16.50;99.90;;;;;;5012132;28;20429;-45
2022/05/28 12:41:26;;;;;;;4.33;1.23;;;16.40;99.90;;;;;;5011392;28;20426;-46
2022/05/28 12:43:59;;;;;;;3.10;1.40;;;16.10;99.90;;;;;;5012420;28;20427;-46
2022/05/28 12:46:43;;;;;;;1.60;1.10;;;15.50;99.90;;;;;;5012647;28;20597;-47
2022/05/28 12:49:13;;;;;;;4.20;1.40;;;14.60;99.90;;;;;;5011386;28;20434;-53
2022/05/28 12:52:00;;;;;;;8.50;1.20;;;14.20;99.90;;;;;;5013419;28;20440;-43
2022/05/28 12:54:29;;;;;;;3.83;1.27;;;14.10;99.90;;;;;;5011401;28;20495;-49
2022/05/28 12:57:08;;;;;;;3.97;1.47;;;14.20;99.90;;;;;;5010057;28;20603;-44
2022/05/28 12:59:38;;;;;;;6.27;1.20;;;14.30;99.90;;;;;;4991119;28;20423;-44
2022/05/28 13:02:11;;;;;;;2.80;1.53;;;14.50;99.90;;;;;;4993849;28;20874;-39
2022/05/28 13:04:42;;;;;;;6.07;1.63;;;14.80;99.90;;;;;;4987801;28;20423;-49
2022/05/28 13:07:22;;;;;;;3.07;1.40;;;15.10;99.90;;;;;;4986758;28;20715;-54
2022/05/28 13:09:54;;;;;;;4.10;1.50;;;15.40;99.90;;;;;;4989681;28;20420;-52